createdAt,value
2022-11-28T15:06:21.042Z,-2.48
2022-11-28T15:08:57.099Z,-2.47
2022-11-28T15:12:03.772Z,-2.40
2022-11-28T15:14:33.397Z,-2.20
2022-11-28T15:17:07.072Z,-2.06
2022-11-28T15:19:42.685Z,-1.90
2022-11-28T15:22:47.005Z,-1.73
2022-11-28T15:25:40.830Z,-1.59
2022-11-28T15:28:18.296Z,-1.51
2022-11-28T15:30:48.568Z,-1.44
2022-11-28T15:33:16.393Z,-1.40
2022-11-28T15:36:04.723Z,-1.31
2022-11-28T15:38:32.839Z,-1.32
2022-11-28T15:41:00.915Z,-1.26
2022-11-28T15:43:31.700Z,-1.20
2022-11-28T15:46:01.771Z,-1.18
2022-11-28T15:48:38.997Z,-1.16
2022-11-28T15:51:09.066Z,-1.17
2022-11-28T15:53:42.501Z,-1.25
2022-11-28T15:56:15.820Z,-1.42
2022-11-28T15:58:52.747Z,-1.59
2022-11-28T16:01:28.408Z,-1.70
2022-11-28T16:04:18.874Z,-1.70
2022-11-28T16:06:52.473Z,-1.71
2022-11-28T16:09:20.268Z,-1.74
2022-11-28T16:11:53.215Z,-1.84
2022-11-28T16:14:29.369Z,-1.85
2022-11-28T16:16:58.915Z,-1.82
2022-11-28T16:19:31.338Z,-1.86
2022-11-28T16:22:01.804Z,-1.95
2022-11-28T16:24:38.579Z,-1.99
2022-11-28T16:27:07.029Z,-2.04
2022-11-28T16:29:36.204Z,-2.08
2022-11-28T16:32:27.202Z,-2.01
2022-11-28T16:34:55.799Z,-2.04
2022-11-28T16:37:25.943Z,-2.02
2022-11-28T16:40:17.228Z,-2.04
2022-11-28T16:42:53.448Z,-2.01
2022-11-28T16:45:30.810Z,-2.04
2022-11-28T16:48:08.910Z,-2.00
2022-11-28T16:50:37.859Z,-1.99
2022-11-28T16:53:05.701Z,-1.93
2022-11-28T16:55:33.841Z,-1.91
2022-11-28T16:58:12.345Z,-1.92
2022-11-28T17:00:44.205Z,-1.93
2022-11-28T17:03:41.403Z,-1.89
2022-11-28T17:06:17.010Z,-1.91
2022-11-28T17:08:45.496Z,-1.92
2022-11-28T17:11:15.798Z,-1.93
2022-11-28T17:13:43.455Z,-1.92
2022-11-28T17:16:19.664Z,-1.89
2022-11-28T17:18:47.972Z,-1.85
2022-11-28T17:21:22.007Z,-1.87
2022-11-28T17:23:49.869Z,-1.86
2022-11-28T17:26:17.490Z,-1.87
2022-11-28T17:28:45.120Z,-1.93
2022-11-28T17:31:14.869Z,-1.90
2022-11-28T17:33:44.776Z,-1.89
2022-11-28T17:36:13.342Z,-1.86
2022-11-28T17:38:41.213Z,-1.83
2022-11-28T17:41:13.909Z,-1.82
2022-11-28T17:43:42.863Z,-1.90
2022-11-28T17:46:10.654Z,-1.89
2022-11-28T17:48:38.348Z,-1.90
2022-11-28T17:51:06.770Z,-1.89
2022-11-28T17:53:34.943Z,-1.91
2022-11-28T17:56:02.817Z,-1.93
2022-11-28T17:58:30.639Z,-2.06
2022-11-28T18:01:00.725Z,-2.11
2022-11-28T18:03:29.355Z,-2.12
2022-11-28T18:05:56.976Z,-2.22
2022-11-28T18:08:24.835Z,-2.27
2022-11-28T18:11:03.556Z,-2.33
2022-11-28T18:13:31.659Z,-2.35
2022-11-28T18:15:59.469Z,-2.39
2022-11-28T18:18:28.199Z,-2.38
2022-11-28T18:20:56.167Z,-2.43
2022-11-28T18:23:23.867Z,-2.45
2022-11-28T18:25:52.205Z,-2.53
2022-11-28T18:28:22.336Z,-2.57
2022-11-28T18:30:50.169Z,-2.55
2022-11-28T18:33:18.124Z,-2.45
2022-11-28T18:35:45.954Z,-2.40
2022-11-28T18:38:13.991Z,-2.42
2022-11-28T18:40:42.258Z,-2.43
2022-11-28T18:43:09.910Z,-2.40
2022-11-28T18:45:37.790Z,-2.38
2022-11-28T18:48:06.229Z,-2.35
2022-11-28T18:50:35.348Z,-2.32
2022-11-28T18:53:03.188Z,-2.33
2022-11-28T18:55:30.874Z,-2.34
2022-11-28T18:57:58.634Z,-2.23
2022-11-28T19:00:26.371Z,-2.23
2022-11-28T19:02:55.158Z,-2.28
2022-11-28T19:05:23.695Z,-2.35
2022-11-28T19:07:51.891Z,-2.36
2022-11-28T19:10:20.813Z,-2.36
2022-11-28T19:12:48.459Z,-2.29
2022-11-28T19:15:16.119Z,-2.30
2022-11-28T19:17:43.884Z,-2.31
2022-11-28T19:20:12.247Z,-2.35
2022-11-28T19:22:39.854Z,-2.35
2022-11-28T19:25:08.294Z,-2.36
2022-11-28T19:27:35.986Z,-2.36
2022-11-28T19:30:04.853Z,-2.31
2022-11-28T19:32:32.784Z,-2.29
2022-11-28T19:35:00.590Z,-2.35
2022-11-28T19:37:29.576Z,-2.44
2022-11-28T19:40:01.156Z,-2.40
2022-11-28T19:42:30.498Z,-2.41
2022-11-28T19:44:58.981Z,-2.44
2022-11-28T19:47:26.793Z,-2.46
2022-11-28T19:49:54.493Z,-2.52
2022-11-28T19:52:22.936Z,-2.48
2022-11-28T19:54:51.186Z,-2.49
2022-11-28T19:57:20.864Z,-2.56
2022-11-28T19:59:48.753Z,-2.59
2022-11-28T20:02:17.872Z,-2.58
2022-11-28T20:04:45.896Z,-2.60
2022-11-28T20:07:14.039Z,-2.63
2022-11-28T20:09:42.542Z,-2.62
2022-11-28T20:12:10.495Z,-2.58
2022-11-28T20:14:38.575Z,-2.53
2022-11-28T20:17:07.156Z,-2.46
2022-11-28T20:19:34.868Z,-2.41
2022-11-28T20:22:02.716Z,-2.35
2022-11-28T20:24:30.950Z,-2.32
2022-11-28T20:26:58.692Z,-2.34
2022-11-28T20:29:28.092Z,-2.32
2022-11-28T20:31:57.473Z,-2.37
2022-11-28T20:34:28.225Z,-2.45
2022-11-28T20:36:55.928Z,-2.43
2022-11-28T20:39:24.349Z,-2.43
2022-11-28T20:41:55.138Z,-2.38
2022-11-28T20:44:22.943Z,-2.42
2022-11-28T20:46:50.724Z,-2.40
2022-11-28T20:49:18.784Z,-2.38
2022-11-28T20:51:47.519Z,-2.42
2022-11-28T20:54:15.226Z,-2.46
2022-11-28T20:57:19.578Z,-2.50
2022-11-28T20:59:32.439Z,-2.46
2022-11-28T21:02:00.071Z,-2.43
2022-11-28T21:04:27.822Z,-2.47
2022-11-28T21:06:55.409Z,-2.51
2022-11-28T21:09:23.250Z,-2.51
2022-11-28T21:11:57.439Z,-2.50
2022-11-28T21:14:26.891Z,-2.49
2022-11-28T21:16:54.817Z,-2.49
2022-11-28T21:19:22.630Z,-2.47
2022-11-28T21:21:50.366Z,-2.36
2022-11-28T21:24:18.081Z,-2.28
2022-11-28T21:26:51.244Z,-2.30
